Wahoo, NE

1:42 AM CDT on August 30, 2014 (GMT -0500)
Wahoo Municipal | Change Station
CLOSE
Current Station
Airport
Location: Wahoo,
Elevation: 1224 ft
Nearby Weather Stations

Elev 1224 ft 41.24 °N, 96.59 °W | Updated 7 minutes ago

Mostly Cloudy
Mostly Cloudy
68 °F
Feels Like 68 °F
N
5
Wind Variable Wind from NW

Today
High -- | Low -- °F
--% Chance of Precip.
Yesterday
High -- | Low -- °F
Precip. -- in
6:50 AM 8:02 PM
Waxing Crescent, 19% visible
Pressure 29.87 in
Visibility 10.0 miles
Clouds Mostly Cloudy 3200 ft
Dew Point 64 °F
Humidity 89%
Rainfall 0.00 in
Snow Depth Not available.
UV 0 out of 12
Pollen 7.50 out of 12
Air Quality Not available.
Flu Activity Not available.
METAR KAHQ 300635Z AUTO 32004KT 10SM BKN032 20/18 A2987 RMK AO2 T01980180

More Conditions Fewer Conditions

Pressure 29.87 in
Visibility 10.0 miles
Clouds Mostly Cloudy 3200 ft
Dew Point 64 °F
Humidity 89%
Rainfall 0.00 in
Snow Depth Not available.
UV 0 out of 12
Pollen 7.50 out of 12
Air Quality Not available.
Flu Activity Not available.
METAR KAHQ 300635Z AUTO 32004KT 10SM BKN032 20/18 A2987 RMK AO2 T01980180

More Conditions Fewer Conditions

10-Day Weather Forecast

Almanac

Astronomy

Aug. 30, 2014 Rise Set
Actual Time 6:50 AM CDT 8:02 PM CDT
Civil Twilight 6:22 AM CDT 8:30 PM CDT
Nautical Twilight 5:48 AM CDT 9:04 PM CDT
Astronomical Twilight 5:12 AM CDT 9:40 PM CDT
Moon 11:42 AM CDT 10:34 PM CDT
Length of Visible Light 14h 08m
Length of Day
13h 11m
Tomorrow will be 2m 37s shorter.
Waxing Crescent, 19% of the Moon is Illuminated
Today
Waxing Crescent
Sep 2
First Quarter
Sep 8
Full
Sep 15
Last Quarter
Sep 24
New

Today's Extremes

State Highs State Lows

Community

WunderPhotos

Upload Photos

1,748,462 photos uploaded!

Nearby

Snow Depth

Station Depth Elevation
No new snow has been reported.

Earthquake Activity

City Distance Mag. Time & Date
No recent earthquake activity has been reported nearby.
Minimum magnitude displayed is 2.5.

Coastal Water Temperatures

Place Temperature
No Stations Reporting

Nearby Weather Stations